createdAt,value
2023-05-19T04:15:56.162Z,101401.75
2023-05-19T04:18:23.739Z,101404.63
2023-05-19T04:20:51.173Z,101402.31
2023-05-19T04:23:20.571Z,101403.88
2023-05-19T04:25:48.771Z,101414.06
2023-05-19T04:28:16.509Z,101418.63
2023-05-19T04:30:46.730Z,101419.47
2023-05-19T04:33:16.021Z,101421.47
2023-05-19T04:35:44.614Z,101419.16
2023-05-19T04:38:13.325Z,101424.03
2023-05-19T04:40:43.124Z,101433.09
2023-05-19T04:43:11.652Z,101431.66
2023-05-19T04:45:42.660Z,101431.81
2023-05-19T04:48:12.429Z,101430.06
2023-05-19T04:50:42.155Z,101430.84
2023-05-19T04:53:11.362Z,101432.09
2023-05-19T04:55:39.362Z,101431.94
2023-05-19T04:58:07.993Z,101435.63
2023-05-19T05:00:36.966Z,101436.50
2023-05-19T05:03:07.892Z,101433.16
2023-05-19T05:05:35.566Z,101434.34
2023-05-19T05:08:03.552Z,101432.97
2023-05-19T05:10:36.068Z,101438.31
2023-05-19T05:13:04.009Z,101443.53
2023-05-19T05:15:31.660Z,101434.16
2023-05-19T05:18:02.762Z,101435.00
2023-05-19T05:20:31.367Z,101439.28
2023-05-19T05:22:59.436Z,101436.38
2023-05-19T05:25:28.013Z,101446.16
2023-05-19T05:27:55.853Z,101429.66
2023-05-19T05:30:24.579Z,101445.13
2023-05-19T05:32:53.338Z,101454.78
2023-05-19T05:35:41.413Z,101441.16
2023-05-19T05:38:11.654Z,101451.03
2023-05-19T05:40:39.467Z,101449.25
2023-05-19T05:43:08.971Z,101456.09
2023-05-19T05:45:42.396Z,101453.03
2023-05-19T05:48:10.373Z,101460.53
2023-05-19T05:50:38.254Z,101449.88
2023-05-19T05:53:07.221Z,101461.31
2023-05-19T05:55:38.121Z,101459.03
2023-05-19T05:58:11.105Z,101462.59
2023-05-19T06:00:38.819Z,101449.09
2023-05-19T06:03:06.794Z,101459.22
2023-05-19T06:05:34.458Z,101462.91
2023-05-19T06:08:02.545Z,101466.94
2023-05-19T06:10:31.850Z,101468.78
2023-05-19T06:12:59.708Z,101475.56
2023-05-19T06:15:27.793Z,101476.59
2023-05-19T06:18:01.126Z,101484.88
2023-05-19T06:20:29.378Z,101475.34
2023-05-19T06:22:58.167Z,101479.38
2023-05-19T06:25:27.673Z,101481.25
2023-05-19T06:27:56.080Z,101484.69
2023-05-19T06:30:24.242Z,101479.00
2023-05-19T06:33:29.134Z,101480.50
2023-05-19T06:35:57.105Z,101484.03
2023-05-19T06:38:25.204Z,101482.41
2023-05-19T06:40:53.847Z,101477.50
2023-05-19T06:43:21.280Z,101474.34
2023-05-19T06:45:56.999Z,101487.84
2023-05-19T06:48:26.226Z,101488.53
2023-05-19T06:50:54.041Z,101485.38
2023-05-19T06:53:21.361Z,101487.94
2023-05-19T06:55:59.553Z,101487.31
2023-05-19T06:58:29.034Z,101487.88
2023-05-19T07:00:57.698Z,101494.88
2023-05-19T07:03:30.969Z,101495.97
2023-05-19T07:06:00.269Z,101493.81
2023-05-19T07:08:29.212Z,101495.53
2023-05-19T07:10:59.872Z,101497.09
2023-05-19T07:13:27.720Z,101490.81
2023-05-19T07:15:56.333Z,101486.78
2023-05-19T07:18:25.601Z,101483.22
2023-05-19T07:20:53.905Z,101486.97
2023-05-19T07:23:21.825Z,101487.41
2023-05-19T07:25:49.998Z,101486.34
2023-05-19T07:28:17.782Z,101491.38
2023-05-19T07:30:46.163Z,101494.31
2023-05-19T07:33:14.030Z,101488.06
2023-05-19T07:35:41.480Z,101486.03
2023-05-19T07:38:08.858Z,101490.66
2023-05-19T07:40:36.724Z,101490.66
2023-05-19T07:43:04.468Z,101495.06
2023-05-19T07:45:32.236Z,101482.03
2023-05-19T07:47:59.731Z,101484.16
2023-05-19T07:50:27.314Z,101497.81
2023-05-19T07:52:55.287Z,101494.72
2023-05-19T07:55:25.249Z,101496.97
2023-05-19T07:57:53.057Z,101493.88
2023-05-19T08:00:21.105Z,101495.94
2023-05-19T08:02:48.579Z,101492.13
2023-05-19T08:05:16.409Z,101504.00
2023-05-19T08:07:43.749Z,101493.28
2023-05-19T08:10:11.504Z,101493.63
2023-05-19T08:12:38.865Z,101493.78
2023-05-19T08:15:07.493Z,101493.47
2023-05-19T08:17:35.246Z,101484.63
2023-05-19T08:20:04.926Z,101489.13
2023-05-19T08:22:32.364Z,101492.06
2023-05-19T08:24:59.821Z,101485.72
2023-05-19T08:27:27.176Z,101484.38
2023-05-19T08:29:55.474Z,101485.00
2023-05-19T08:32:24.014Z,101483.91
2023-05-19T08:34:51.618Z,101487.91
2023-05-19T08:37:18.999Z,101486.44
2023-05-19T08:39:46.390Z,101481.97
2023-05-19T08:42:14.105Z,101486.94
2023-05-19T08:44:42.909Z,101495.47
2023-05-19T08:47:14.325Z,101491.91
2023-05-19T08:49:47.499Z,101493.22
2023-05-19T08:52:25.681Z,101496.25
2023-05-19T08:55:02.434Z,101493.66
2023-05-19T08:57:31.215Z,101496.97
2023-05-19T09:00:00.202Z,101486.09
2023-05-19T09:02:30.039Z,101478.38
2023-05-19T09:04:57.768Z,101489.25
2023-05-19T09:07:26.161Z,101488.09
2023-05-19T09:09:53.966Z,101490.97
2023-05-19T09:12:21.505Z,101488.59
2023-05-19T09:14:49.365Z,101491.16
2023-05-19T09:17:19.255Z,101489.97
2023-05-19T09:19:48.172Z,101494.44
2023-05-19T09:22:20.602Z,101498.56
2023-05-19T09:24:48.488Z,101490.16
2023-05-19T09:27:25.588Z,101497.47
2023-05-19T09:29:53.072Z,101491.63
2023-05-19T09:32:26.884Z,101493.91
2023-05-19T09:34:55.240Z,101495.28
2023-05-19T09:37:24.594Z,101490.44
2023-05-19T09:39:53.280Z,101497.19
2023-05-19T09:42:29.833Z,101498.13
2023-05-19T09:45:02.197Z,101494.06
2023-05-19T09:47:38.314Z,101492.13
2023-05-19T09:50:10.404Z,101484.94
2023-05-19T09:52:39.331Z,101483.00
2023-05-19T09:55:10.937Z,101485.31
2023-05-19T09:57:40.041Z,101482.06
2023-05-19T10:00:14.912Z,101485.78
2023-05-19T10:02:46.930Z,101480.94
2023-05-19T10:05:17.556Z,101474.88
2023-05-19T10:07:52.421Z,101480.38
2023-05-19T10:10:21.031Z,101478.59
2023-05-19T10:12:49.397Z,101476.75
2023-05-19T10:15:20.694Z,101473.38
2023-05-19T10:17:50.941Z,101473.03
2023-05-19T10:20:18.439Z,101471.63
2023-05-19T10:22:47.822Z,101472.91
2023-05-19T10:25:18.356Z,101472.81
2023-05-19T10:28:11.536Z,101474.97
2023-05-19T10:30:45.864Z,101471.25
2023-05-19T10:33:18.749Z,101478.44
2023-05-19T10:35:47.280Z,101480.66
2023-05-19T10:38:24.341Z,101483.03
2023-05-19T10:41:16.611Z,101478.88
2023-05-19T10:44:08.231Z,101480.84
2023-05-19T10:46:36.369Z,101478.44
2023-05-19T10:49:03.859Z,101472.16
2023-05-19T10:51:32.494Z,101483.31
2023-05-19T10:54:04.109Z,101477.22
2023-05-19T10:56:34.827Z,101477.50
2023-05-19T10:59:03.536Z,101481.91
2023-05-19T11:01:36.083Z,101476.88
2023-05-19T11:04:58.563Z,101475.41
2023-05-19T11:07:26.513Z,101474.88
2023-05-19T11:09:54.420Z,101470.16
2023-05-19T11:12:24.651Z,101473.22
2023-05-19T11:14:54.146Z,101476.78
2023-05-19T11:17:22.380Z,101468.00
2023-05-19T11:19:57.587Z,101474.47
2023-05-19T11:22:27.269Z,101469.41
2023-05-19T11:24:55.635Z,101472.41
2023-05-19T11:27:32.879Z,101479.22
2023-05-19T11:30:19.902Z,101471.66
2023-05-19T11:32:48.804Z,101470.69
2023-05-19T11:35:19.036Z,101473.72
2023-05-19T11:37:47.730Z,101470.28
2023-05-19T11:40:15.953Z,101473.00
2023-05-19T11:42:45.234Z,101468.03
2023-05-19T11:45:13.110Z,101459.47
2023-05-19T11:47:57.140Z,101458.88
2023-05-19T11:50:28.582Z,101457.09
2023-05-19T11:52:57.658Z,101457.28
2023-05-19T11:55:25.964Z,101456.63
2023-05-19T11:58:04.417Z,101460.78
2023-05-19T12:00:41.233Z,101466.34
2023-05-19T12:03:09.959Z,101460.38
2023-05-19T12:05:47.174Z,101461.78
2023-05-19T12:08:17.432Z,101457.75
2023-05-19T12:10:50.394Z,101461.41
2023-05-19T12:13:18.404Z,101458.13
2023-05-19T12:15:45.792Z,101461.94
2023-05-19T12:18:13.233Z,101457.84
2023-05-19T12:20:41.442Z,101464.56
2023-05-19T12:23:09.821Z,101457.97
2023-05-19T12:25:38.332Z,101465.22
2023-05-19T12:28:05.822Z,101460.59
2023-05-19T12:30:34.797Z,101457.84
2023-05-19T12:35:54.583Z,101458.25
2023-05-19T12:38:23.226Z,101457.03
2023-05-19T12:40:50.897Z,101456.03
2023-05-19T12:43:25.518Z,101452.16
2023-05-19T12:45:53.420Z,101452.28
2023-05-19T12:48:24.730Z,101453.41
2023-05-19T12:50:55.549Z,101451.59
2023-05-19T12:53:22.925Z,101459.03
2023-05-19T12:55:52.989Z,101448.56
2023-05-19T12:58:22.757Z,101457.16
2023-05-19T13:00:50.549Z,101449.78
2023-05-19T13:03:19.907Z,101452.09
2023-05-19T13:05:50.346Z,101445.69
2023-05-19T13:08:42.313Z,101447.22
2023-05-19T13:11:10.217Z,101450.22
2023-05-19T13:13:57.632Z,101453.34
2023-05-19T13:16:46.336Z,101443.72
2023-05-19T13:19:32.537Z,101445.94
2023-05-19T13:22:00.349Z,101448.06
2023-05-19T13:24:28.059Z,101446.28
2023-05-19T13:26:56.764Z,101441.84
2023-05-19T13:29:24.173Z,101447.88
2023-05-19T13:31:52.321Z,101445.94
2023-05-19T13:34:20.385Z,101446.38
2023-05-19T13:36:48.894Z,101455.00
2023-05-19T13:39:17.248Z,101447.22
2023-05-19T13:41:44.642Z,101445.13
2023-05-19T13:44:12.914Z,101443.53
2023-05-19T13:46:45.261Z,101446.00
2023-05-19T13:49:14.323Z,101436.91
2023-05-19T13:51:43.696Z,101441.03
2023-05-19T13:54:11.723Z,101445.59
2023-05-19T13:56:39.559Z,101437.56
2023-05-19T13:59:07.097Z,101436.91
2023-05-19T14:01:34.655Z,101438.59
2023-05-19T14:04:02.745Z,101440.69
2023-05-19T14:06:30.593Z,101442.09
2023-05-19T14:08:58.545Z,101432.09
2023-05-19T14:11:26.381Z,101431.88
2023-05-19T14:13:53.822Z,101428.16
2023-05-19T14:16:22.898Z,101422.22
2023-05-19T14:18:50.758Z,101420.84
2023-05-19T14:21:18.294Z,101426.22
2023-05-19T14:23:46.369Z,101420.59
2023-05-19T14:26:13.738Z,101414.88
2023-05-19T14:28:41.326Z,101416.25
2023-05-19T14:31:13.095Z,101414.97
2023-05-19T14:33:41.383Z,101414.28
2023-05-19T14:36:09.825Z,101406.72
2023-05-19T14:38:37.718Z,101405.69
2023-05-19T14:41:06.704Z,101407.22
2023-05-19T14:43:34.463Z,101414.41
2023-05-19T14:46:01.982Z,101405.97
2023-05-19T14:48:29.389Z,101408.22
2023-05-19T14:50:56.808Z,101409.75
2023-05-19T14:53:24.625Z,101407.00
2023-05-19T14:55:52.822Z,101414.41
2023-05-19T14:58:28.701Z,101412.56
2023-05-19T15:00:59.654Z,101410.97
2023-05-19T15:03:27.328Z,101400.47
2023-05-19T15:05:54.756Z,101404.00
2023-05-19T15:08:23.352Z,101394.06
2023-05-19T15:10:51.526Z,101395.84
2023-05-19T15:13:19.107Z,101389.41
2023-05-19T15:15:46.909Z,101388.09
2023-05-19T15:18:18.621Z,101391.84
2023-05-19T15:20:46.568Z,101382.00
2023-05-19T15:23:14.315Z,101393.38
2023-05-19T15:25:42.218Z,101384.91
2023-05-19T15:28:10.047Z,101390.88
2023-05-19T15:30:37.695Z,101386.59
2023-05-19T15:33:05.988Z,101386.06
2023-05-19T15:35:34.497Z,101389.47
2023-05-19T15:38:06.099Z,101383.50
2023-05-19T15:40:33.627Z,101390.47
2023-05-19T15:43:01.965Z,101381.28
2023-05-19T15:45:29.444Z,101383.19
2023-05-19T15:47:57.319Z,101385.53
2023-05-19T15:50:26.363Z,101388.97
2023-05-19T15:52:54.125Z,101377.84
2023-05-19T15:55:21.559Z,101373.59
2023-05-19T15:57:49.299Z,101371.78
2023-05-19T16:00:17.405Z,101370.75
2023-05-19T16:02:45.400Z,101365.94
2023-05-19T16:05:12.904Z,101374.06
2023-05-19T16:07:42.138Z,101372.09
2023-05-19T16:10:10.735Z,101359.75
2023-05-19T16:12:38.613Z,101361.19
2023-05-19T16:15:07.024Z,101363.41
2023-05-19T16:17:35.392Z,101371.84
2023-05-19T16:20:03.078Z,101368.75
2023-05-19T16:22:30.921Z,101362.44
2023-05-19T16:24:58.798Z,101359.63
2023-05-19T16:27:26.176Z,101352.91
2023-05-19T16:29:55.426Z,101354.03
2023-05-19T16:32:23.330Z,101354.13
2023-05-19T16:34:51.298Z,101349.84
2023-05-19T16:37:19.043Z,101344.88
2023-05-19T16:39:48.330Z,101339.03
2023-05-19T16:42:15.979Z,101349.56
2023-05-19T16:44:43.904Z,101350.59
2023-05-19T16:47:11.908Z,101355.41
2023-05-19T16:49:40.852Z,101348.16
2023-05-19T16:52:08.713Z,101344.66
2023-05-19T16:54:36.386Z,101349.34
2023-05-19T16:57:04.755Z,101352.09
2023-05-19T16:59:32.586Z,101349.06
2023-05-19T17:02:00.911Z,101347.81
2023-05-19T17:04:30.643Z,101351.84
2023-05-19T17:06:58.767Z,101348.53
2023-05-19T17:09:26.536Z,101360.25
2023-05-19T17:11:53.973Z,101355.97
2023-05-19T17:14:21.957Z,101352.09
2023-05-19T17:16:49.562Z,101356.25
2023-05-19T17:19:17.117Z,101362.75
2023-05-19T17:21:44.630Z,101363.19
2023-05-19T17:24:12.467Z,101357.91
2023-05-19T17:26:40.693Z,101364.97
2023-05-19T17:29:08.267Z,101365.25
2023-05-19T17:31:36.416Z,101368.44
2023-05-19T17:34:03.888Z,101360.00
2023-05-19T17:36:31.564Z,101359.91
2023-05-19T17:38:59.459Z,101359.47
2023-05-19T17:41:27.008Z,101364.63
2023-05-19T17:43:54.830Z,101362.97
2023-05-19T17:46:22.235Z,101378.34
2023-05-19T17:48:50.173Z,101362.66
2023-05-19T17:51:18.249Z,101370.38
2023-05-19T17:53:45.932Z,101374.78
2023-05-19T17:56:13.996Z,101381.75
2023-05-19T17:58:42.502Z,101380.09
2023-05-19T18:01:10.572Z,101387.47
2023-05-19T18:03:38.399Z,101385.84
2023-05-19T18:06:07.313Z,101387.56
2023-05-19T18:08:37.894Z,101390.97
2023-05-19T18:11:06.262Z,101391.19
2023-05-19T18:13:33.650Z,101390.44
2023-05-19T18:16:01.304Z,101385.16
2023-05-19T18:18:28.755Z,101381.97
2023-05-19T18:20:56.524Z,101376.16
2023-05-19T18:23:23.941Z,101374.91
2023-05-19T18:25:53.192Z,101381.19
2023-05-19T18:28:20.654Z,101379.50
2023-05-19T18:30:59.159Z,101372.00
2023-05-19T18:33:28.436Z,101374.78
2023-05-19T18:35:57.869Z,101364.56
2023-05-19T18:38:25.829Z,101371.06
2023-05-19T18:40:53.579Z,101375.13
2023-05-19T18:43:21.508Z,101377.03
2023-05-19T18:45:49.885Z,101375.19
2023-05-19T18:48:17.406Z,101381.16
2023-05-19T18:50:45.416Z,101383.94
2023-05-19T18:53:12.928Z,101391.91
2023-05-19T18:55:40.495Z,101391.69
2023-05-19T18:58:08.322Z,101387.09
2023-05-19T19:00:36.026Z,101391.09
2023-05-19T19:03:04.436Z,101388.06
2023-05-19T19:05:31.912Z,101382.59
2023-05-19T19:07:59.649Z,101387.47
2023-05-19T19:10:27.369Z,101388.50
2023-05-19T19:12:58.444Z,101389.78
2023-05-19T19:15:28.341Z,101395.69
2023-05-19T19:17:56.183Z,101382.63
2023-05-19T19:20:24.128Z,101388.50
2023-05-19T19:22:52.115Z,101384.72
2023-05-19T19:25:21.289Z,101388.38
2023-05-19T19:27:50.818Z,101391.09
2023-05-19T19:30:18.988Z,101396.75
2023-05-19T19:32:47.238Z,101388.56
2023-05-19T19:35:16.095Z,101400.56
2023-05-19T19:37:43.487Z,101401.22
2023-05-19T19:40:11.883Z,101401.22
2023-05-19T19:42:40.384Z,101398.88
2023-05-19T19:45:08.180Z,101405.09
2023-05-19T19:47:36.523Z,101401.59
2023-05-19T19:50:05.792Z,101401.22
2023-05-19T19:52:33.491Z,101399.53
2023-05-19T19:55:02.046Z,101400.97
2023-05-19T19:57:31.533Z,101404.63
2023-05-19T20:00:07.881Z,101407.09
2023-05-19T20:02:40.959Z,101412.78
2023-05-19T20:05:14.760Z,101405.84
2023-05-19T20:07:42.907Z,101409.16
2023-05-19T20:10:10.992Z,101400.19
2023-05-19T20:12:38.728Z,101405.16
2023-05-19T20:15:07.163Z,101409.91
2023-05-19T20:17:34.913Z,101407.13
2023-05-19T20:20:04.685Z,101407.16
2023-05-19T20:22:32.817Z,101406.97
2023-05-19T20:25:00.837Z,101418.31
2023-05-19T20:27:28.124Z,101411.91
2023-05-19T20:29:55.988Z,101410.25
2023-05-19T20:32:23.344Z,101418.88
2023-05-19T20:34:51.316Z,101408.16
2023-05-19T20:37:19.376Z,101408.38
2023-05-19T20:39:47.194Z,101404.75
2023-05-19T20:42:15.168Z,101411.84
2023-05-19T20:44:42.908Z,101411.84
2023-05-19T20:47:10.954Z,101421.50
2023-05-19T20:49:38.429Z,101420.41
2023-05-19T20:52:06.848Z,101412.78
2023-05-19T20:54:34.888Z,101412.41
2023-05-19T20:57:06.475Z,101417.91
2023-05-19T20:59:34.169Z,101424.00
2023-05-19T21:02:02.145Z,101432.84
2023-05-19T21:04:29.471Z,101428.88
2023-05-19T21:06:56.942Z,101430.16
